Time;durP1;ratioP1;P1;durP2;ratioP2;P2;SDS_P1;SDS_P2;PMS_P1;PMS_P2;Temp;Humidity;BMP_temperature;BMP_pressure;BME280_temperature;BME280_humidity;BME280_pressure;Samples;Min_cycle;Max_cycle;Signal;HPM_P1;HPM_P2
2022/09/04 00:00:17;;;;;;;15.87;5.37;;;14.50;99.90;;;;;;5064369;28;20258;-61
2022/09/04 00:03:00;;;;;;;31.73;5.70;;;14.40;99.90;;;;;;5048272;28;20915;-61
2022/09/04 00:05:41;;;;;;;17.57;5.63;;;14.40;99.90;;;;;;5064226;28;20479;-56
2022/09/04 00:08:32;;;;;;;15.47;4.80;;;14.30;99.90;;;;;;5064121;28;20422;-61
2022/09/04 00:11:11;;;;;;;19.87;5.30;;;14.30;99.90;;;;;;5062356;28;20450;-61
2022/09/04 00:13:50;;;;;;;16.97;4.73;;;14.30;99.90;;;;;;5062830;28;20457;-61
2022/09/04 00:16:21;;;;;;;13.83;5.70;;;14.30;99.90;;;;;;5058807;28;20431;-61
2022/09/04 00:19:02;;;;;;;14.50;5.00;;;14.20;99.90;;;;;;5065891;28;20455;-61
2022/09/04 00:21:36;;;;;;;8.73;4.50;;;14.30;99.90;;;;;;5067199;28;20440;-61
2022/09/04 00:24:14;;;;;;;36.07;6.50;;;14.30;99.90;;;;;;5064202;28;20519;-61
2022/09/04 00:27:02;;;;;;;21.00;5.13;;;14.30;99.90;;;;;;5051170;28;20444;-61
2022/09/04 00:29:38;;;;;;;11.57;5.37;;;14.20;99.90;;;;;;5055263;28;20432;-61
2022/09/04 00:32:17;;;;;;;26.50;5.93;;;14.20;99.90;;;;;;5065901;28;20475;-61
2022/09/04 00:34:44;;;;;;;41.70;6.33;;;14.20;99.90;;;;;;5066704;28;20439;-61
2022/09/04 00:37:15;;;;;;;29.03;5.63;;;14.10;99.90;;;;;;5066651;28;20842;-62
2022/09/04 00:39:57;;;;;;;23.30;5.77;;;14.10;99.90;;;;;;5044743;28;20428;-61
2022/09/04 00:42:46;;;;;;;15.30;6.00;;;14.10;99.90;;;;;;5063928;28;20521;-60
2022/09/04 00:45:33;;;;;;;11.23;5.33;;;14.10;99.90;;;;;;5064556;28;20428;-61
2022/09/04 00:48:40;;;;;;;11.23;6.03;;;14.10;99.90;;;;;;5061764;28;20421;-61
2022/09/04 00:51:14;;;;;;;20.03;6.17;;;14.10;99.90;;;;;;4986183;28;20432;-61
2022/09/04 00:53:58;;;;;;;19.13;5.77;;;14.20;99.90;;;;;;5052801;28;20464;-59
2022/09/04 00:57:18;;;;;;;21.70;5.40;;;14.20;99.90;;;;;;5058892;28;20437;-61
2022/09/04 01:00:14;;;;;;;10.73;5.20;;;14.10;99.90;;;;;;5034719;28;20949;-61
2022/09/04 01:02:55;;;;;;;29.30;7.43;;;14.10;99.90;;;;;;5044821;28;20461;-61
2022/09/04 01:06:06;;;;;;;10.90;7.00;;;14.10;99.90;;;;;;5061189;28;20451;-61
2022/09/04 01:09:00;;;;;;;10.37;7.17;;;14.10;99.90;;;;;;5029309;28;20436;-61
2022/09/04 01:11:53;;;;;;;10.80;6.90;;;14.10;99.90;;;;;;5065104;28;20461;-60
2022/09/04 01:14:43;;;;;;;8.30;6.40;;;14.10;99.90;;;;;;5062665;28;20440;-61
2022/09/04 01:17:32;;;;;;;11.10;5.30;;;14.10;99.90;;;;;;5059262;28;20436;-62
2022/09/04 01:20:20;;;;;;;6.60;4.63;;;14.10;99.90;;;;;;5056560;28;20447;-61
2022/09/04 01:23:23;;;;;;;6.40;4.43;;;14.10;99.90;;;;;;5065330;28;20536;-61
2022/09/04 01:25:57;;;;;;;5.20;4.70;;;14.10;99.90;;;;;;5059646;28;20463;-61
2022/09/04 01:28:41;;;;;;;5.03;4.47;;;14.10;99.90;;;;;;5043803;28;20443;-60
2022/09/04 01:31:32;;;;;;;4.70;3.93;;;14.00;99.90;;;;;;5063246;28;20850;-62
2022/09/04 01:34:36;;;;;;;39.20;5.20;;;14.00;99.90;;;;;;5060506;28;20464;-61
2022/09/04 01:37:23;;;;;;;3.80;3.50;;;14.00;99.90;;;;;;5044616;28;20444;-61
2022/09/04 01:40:17;;;;;;;4.73;4.20;;;13.90;99.90;;;;;;5064763;28;20449;-61
2022/09/04 01:42:50;;;;;;;4.23;3.83;;;13.90;99.90;;;;;;5041040;28;20472;-61
2022/09/04 01:45:31;;;;;;;4.30;3.63;;;13.90;99.90;;;;;;5061869;28;20501;-61
2022/09/04 01:48:02;;;;;;;13.70;4.30;;;13.90;99.90;;;;;;5058744;28;20921;-61
2022/09/04 01:50:31;;;;;;;26.70;5.20;;;13.90;99.90;;;;;;5062753;28;20428;-61
2022/09/04 01:53:27;;;;;;;8.73;3.50;;;13.80;99.90;;;;;;5060532;28;21027;-61
2022/09/04 01:56:03;;;;;;;5.30;3.60;;;13.80;99.90;;;;;;5065878;28;20883;-61
2022/09/04 01:58:48;;;;;;;4.23;3.70;;;13.70;99.90;;;;;;5067211;28;20520;-61
2022/09/04 02:01:41;;;;;;;16.90;4.60;;;13.70;99.90;;;;;;5065651;28;20443;-61
2022/09/04 02:04:20;;;;;;;4.17;3.77;;;13.70;99.90;;;;;;5057680;28;20530;-61
2022/09/04 02:07:04;;;;;;;5.50;4.90;;;13.80;99.90;;;;;;5067275;28;20452;-61
2022/09/04 02:09:40;;;;;;;8.97;6.83;;;13.70;99.90;;;;;;5063291;28;20425;-61
2022/09/04 02:12:24;;;;;;;29.10;6.50;;;13.70;99.90;;;;;;5064946;28;20493;-61
2022/09/04 02:15:05;;;;;;;18.20;5.90;;;13.70;99.90;;;;;;5073453;28;20425;-61
2022/09/04 02:17:37;;;;;;;27.63;7.30;;;13.70;99.90;;;;;;5043687;28;20439;-61
2022/09/04 02:20:25;;;;;;;31.87;7.00;;;13.60;99.90;;;;;;5067308;28;20408;-61
2022/09/04 02:23:28;;;;;;;10.70;6.10;;;13.60;99.90;;;;;;5056485;28;20490;-61
2022/09/04 02:26:22;;;;;;;27.17;8.77;;;13.60;99.90;;;;;;5063298;28;20452;-61
2022/09/04 02:29:14;;;;;;;12.50;6.60;;;13.50;99.90;;;;;;5069727;28;20436;-61
2022/09/04 02:31:45;;;;;;;12.40;7.87;;;13.50;99.90;;;;;;5067782;28;20443;-61
2022/09/04 02:34:15;;;;;;;21.47;8.50;;;13.50;99.90;;;;;;5064574;28;20413;-61
2022/09/04 02:36:46;;;;;;;124.07;10.93;;;13.60;99.90;;;;;;5063112;28;20503;-62
2022/09/04 02:39:20;;;;;;;8.50;6.20;;;13.50;99.90;;;;;;5065751;28;20439;-61
2022/09/04 02:42:03;;;;;;;21.67;7.33;;;13.50;99.90;;;;;;5065352;28;20456;-61
2022/09/04 02:44:43;;;;;;;150.47;11.33;;;13.40;99.90;;;;;;5050524;28;20432;-62
2022/09/04 02:47:35;;;;;;;122.33;8.23;;;13.40;99.90;;;;;;5070568;28;20856;-61
2022/09/04 02:50:01;;;;;;;89.77;8.50;;;13.40;99.90;;;;;;5060857;28;20420;-61
2022/09/04 02:52:55;;;;;;;28.90;6.23;;;13.30;99.90;;;;;;5059367;28;20635;-61
2022/09/04 02:56:07;;;;;;;66.30;6.53;;;13.30;99.90;;;;;;5058459;28;20178;-61
2022/09/04 02:59:06;;;;;;;32.77;5.10;;;13.20;99.90;;;;;;5070289;28;20452;-61
2022/09/04 03:01:45;;;;;;;9.87;4.10;;;13.20;99.90;;;;;;5063882;28;20428;-60
2022/09/04 03:04:48;;;;;;;5.97;4.10;;;13.20;99.90;;;;;;5065682;28;20408;-61
2022/09/04 03:07:41;;;;;;;7.97;3.80;;;13.20;99.90;;;;;;5066240;28;20460;-62
2022/09/04 03:10:27;;;;;;;5.63;3.30;;;13.20;99.90;;;;;;5064188;28;20477;-60
2022/09/04 03:13:07;;;;;;;6.00;3.63;;;13.20;99.90;;;;;;5063876;28;20517;-61
2022/09/04 03:15:48;;;;;;;9.03;3.77;;;13.30;99.90;;;;;;5058533;28;20778;-61
2022/09/04 03:18:22;;;;;;;6.33;3.80;;;13.30;99.90;;;;;;5063653;28;20429;-61
2022/09/04 03:21:11;;;;;;;5.23;3.63;;;13.30;99.90;;;;;;5072055;28;20400;-61
2022/09/04 03:23:57;;;;;;;10.90;4.30;;;13.30;99.90;;;;;;5065476;28;20572;-61
2022/09/04 03:26:34;;;;;;;5.07;4.07;;;13.30;99.90;;;;;;5064075;28;20974;-61
2022/09/04 03:29:25;;;;;;;9.93;5.20;;;13.30;99.90;;;;;;5068623;28;20429;-61
2022/09/04 03:32:05;;;;;;;5.80;4.93;;;13.30;99.90;;;;;;5062665;28;20541;-61
2022/09/04 03:34:47;;;;;;;5.67;5.00;;;13.20;99.90;;;;;;5068030;28;20925;-60
2022/09/04 03:37:49;;;;;;;13.40;5.37;;;13.20;99.90;;;;;;5070045;28;20456;-61
2022/09/04 03:40:24;;;;;;;6.60;5.90;;;13.20;99.90;;;;;;5068139;28;20428;-61
2022/09/04 03:43:08;;;;;;;11.27;4.17;;;13.20;99.90;;;;;;5064854;28;20450;-61
2022/09/04 03:45:43;;;;;;;17.23;6.00;;;13.20;99.90;;;;;;5040872;28;20465;-61
2022/09/04 03:48:16;;;;;;;21.57;5.67;;;13.20;99.90;;;;;;5068466;28;20416;-61
2022/09/04 03:51:14;;;;;;;11.50;5.70;;;13.10;99.90;;;;;;5059447;28;20439;-61
2022/09/04 03:53:43;;;;;;;19.87;5.77;;;13.00;99.90;;;;;;5065156;28;20475;-61
2022/09/04 03:56:46;;;;;;;18.83;6.00;;;13.00;99.90;;;;;;5062886;28;20433;-61
2022/09/04 03:59:32;;;;;;;11.77;6.07;;;12.90;99.90;;;;;;5063912;28;20443;-61
2022/09/04 04:02:05;;;;;;;14.93;5.23;;;12.90;99.90;;;;;;5061980;28;20487;-60
2022/09/04 04:04:43;;;;;;;15.73;5.63;;;12.90;99.90;;;;;;5063094;28;20461;-61
2022/09/04 04:07:23;;;;;;;16.93;7.13;;;12.90;99.90;;;;;;5064496;28;20502;-61
2022/09/04 04:10:19;;;;;;;13.30;7.10;;;12.80;99.90;;;;;;5055313;28;20494;-60
2022/09/04 04:13:03;;;;;;;7.70;5.93;;;12.80;99.90;;;;;;5066347;28;20459;-60
2022/09/04 04:15:50;;;;;;;12.80;6.80;;;12.80;99.90;;;;;;5067055;28;20566;-61
2022/09/04 04:18:30;;;;;;;20.53;5.90;;;12.80;99.90;;;;;;5069385;28;20412;-61
2022/09/04 04:21:20;;;;;;;9.67;4.97;;;12.80;99.90;;;;;;5059451;28;20820;-61
2022/09/04 04:24:13;;;;;;;14.77;4.63;;;12.80;99.90;;;;;;5063110;28;21385;-60
2022/09/04 04:27:03;;;;;;;19.17;4.63;;;12.80;99.90;;;;;;5049450;28;20452;-62
2022/09/04 04:29:51;;;;;;;11.80;4.30;;;12.80;99.90;;;;;;5062600;28;20459;-61
2022/09/04 04:32:38;;;;;;;14.57;4.33;;;12.70;99.90;;;;;;5062338;28;20445;-61
2022/09/04 04:35:03;;;;;;;7.50;4.33;;;12.70;99.90;;;;;;5066441;28;20452;-61
2022/09/04 04:37:45;;;;;;;4.97;4.57;;;12.70;99.90;;;;;;5066317;28;20467;-61
2022/09/04 04:40:27;;;;;;;5.80;5.20;;;12.70;99.90;;;;;;5044663;28;20800;-60
2022/09/04 04:43:15;;;;;;;11.47;6.80;;;12.70;99.90;;;;;;5047660;28;20444;-61
2022/09/04 04:45:53;;;;;;;8.90;7.20;;;12.70;99.90;;;;;;5048427;28;20505;-61
2022/09/04 04:48:53;;;;;;;8.83;6.27;;;12.70;99.90;;;;;;5064340;28;20577;-61
2022/09/04 04:51:43;;;;;;;7.43;6.73;;;12.70;99.90;;;;;;5053076;28;21513;-61
2022/09/04 04:54:40;;;;;;;6.47;4.67;;;12.70;99.90;;;;;;5055009;28;20450;-58
2022/09/04 04:57:28;;;;;;;4.10;3.70;;;12.70;99.90;;;;;;5039299;28;20445;-58
2022/09/04 05:00:11;;;;;;;4.37;4.00;;;12.70;99.90;;;;;;5062243;28;20432;-59
2022/09/04 05:02:41;;;;;;;9.90;3.50;;;12.70;99.90;;;;;;5057884;28;20467;-59
2022/09/04 05:05:12;;;;;;;6.70;3.33;;;12.70;99.90;;;;;;5060799;28;20432;-58
2022/09/04 05:07:59;;;;;;;4.53;4.17;;;12.80;99.90;;;;;;5059481;28;20456;-58
2022/09/04 05:10:45;;;;;;;5.67;4.00;;;12.80;99.90;;;;;;5058200;28;20949;-58
2022/09/04 05:13:36;;;;;;;5.57;5.07;;;12.80;99.90;;;;;;5065536;28;20995;-58
2022/09/04 05:16:08;;;;;;;6.83;4.00;;;12.70;99.90;;;;;;5061463;28;20436;-60
2022/09/04 05:18:56;;;;;;;4.23;3.83;;;12.80;99.90;;;;;;5062608;28;20420;-61
2022/09/04 05:21:58;;;;;;;14.03;4.93;;;12.70;99.90;;;;;;5064508;28;20969;-61
2022/09/04 05:24:37;;;;;;;4.10;3.60;;;12.80;99.90;;;;;;5056693;28;20908;-61
2022/09/04 05:27:29;;;;;;;4.00;3.70;;;12.70;99.90;;;;;;5060588;28;20822;-61
2022/09/04 05:30:08;;;;;;;4.10;3.70;;;12.80;99.90;;;;;;5063240;28;20420;-61
2022/09/04 05:32:52;;;;;;;4.20;3.80;;;12.70;99.90;;;;;;5062742;28;20432;-61
2022/09/04 05:35:23;;;;;;;8.07;4.50;;;12.70;99.90;;;;;;5060491;28;20429;-62
2022/09/04 05:38:02;;;;;;;4.13;3.60;;;12.70;99.90;;;;;;5045753;28;20417;-62
2022/09/04 05:40:31;;;;;;;5.13;4.63;;;12.70;99.90;;;;;;5062827;28;20447;-62
2022/09/04 05:43:30;;;;;;;5.80;5.20;;;12.70;99.90;;;;;;5060636;28;20445;-62
2022/09/04 05:46:10;;;;;;;4.80;4.13;;;12.70;99.90;;;;;;5063112;28;20536;-62
2022/09/04 05:49:00;;;;;;;5.03;4.53;;;12.80;99.90;;;;;;5059590;28;20424;-59
2022/09/04 05:51:59;;;;;;;5.13;4.30;;;12.80;99.90;;;;;;5058996;28;20417;-65
2022/09/04 05:54:49;;;;;;;7.70;4.70;;;12.80;99.90;;;;;;5056685;28;20437;-57
2022/09/04 05:57:21;;;;;;;21.23;4.70;;;12.80;99.90;;;;;;5052882;28;20518;-57
2022/09/04 06:00:00;;;;;;;69.33;5.60;;;12.80;99.90;;;;;;5064289;28;20436;-58
2022/09/04 06:02:52;;;;;;;9.77;4.63;;;12.80;99.90;;;;;;5065656;28;20456;-56
2022/09/04 06:05:30;;;;;;;5.07;4.50;;;12.70;99.90;;;;;;5064437;28;20570;-59
2022/09/04 06:08:23;;;;;;;7.77;4.40;;;12.80;99.90;;;;;;5068720;28;20431;-61
2022/09/04 06:10:58;;;;;;;5.07;4.57;;;12.80;99.90;;;;;;5067056;28;20471;-60
2022/09/04 06:13:29;;;;;;;5.03;4.13;;;12.80;99.90;;;;;;5063731;28;20455;-61
2022/09/04 06:16:25;;;;;;;8.27;5.70;;;12.90;99.90;;;;;;5058922;28;20523;-60
2022/09/04 06:19:16;;;;;;;5.30;4.80;;;12.90;99.90;;;;;;5065311;28;20435;-59
2022/09/04 06:21:54;;;;;;;29.13;5.77;;;13.00;99.90;;;;;;5065834;28;20906;-59
2022/09/04 06:24:23;;;;;;;12.13;5.23;;;13.00;99.90;;;;;;5073836;28;20501;-60
2022/09/04 06:27:17;;;;;;;6.30;5.67;;;13.00;99.90;;;;;;5066302;28;20460;-59
2022/09/04 06:30:10;;;;;;;13.43;6.83;;;13.00;99.90;;;;;;5066442;28;20811;-60
2022/09/04 06:32:44;;;;;;;16.93;7.50;;;13.00;99.90;;;;;;5054431;28;21636;-59
2022/09/04 06:35:25;;;;;;;12.40;8.00;;;13.10;99.90;;;;;;5056583;28;20412;-59
2022/09/04 06:37:57;;;;;;;22.23;11.03;;;13.10;99.90;;;;;;5065375;28;20429;-60
2022/09/04 06:40:28;;;;;;;37.50;13.40;;;13.10;99.90;;;;;;5068783;28;20967;-59
2022/09/04 06:43:04;;;;;;;23.20;12.27;;;13.10;99.90;;;;;;5062178;28;20453;-60
2022/09/04 06:45:46;;;;;;;13.80;9.33;;;13.10;99.90;;;;;;5072068;28;20510;-59
2022/09/04 06:48:43;;;;;;;12.03;8.50;;;13.10;99.90;;;;;;5051138;28;20462;-59
2022/09/04 06:51:20;;;;;;;7.07;5.70;;;13.20;99.90;;;;;;5064981;28;21111;-60
2022/09/04 06:54:02;;;;;;;7.43;6.33;;;13.30;99.90;;;;;;5074066;28;20509;-59
2022/09/04 06:56:54;;;;;;;8.73;6.30;;;13.30;99.90;;;;;;5072811;28;20436;-60
2022/09/04 06:59:29;;;;;;;9.63;7.03;;;13.40;99.90;;;;;;5070365;28;20439;-59
2022/09/04 07:01:59;;;;;;;18.23;7.60;;;13.50;99.90;;;;;;5068005;28;21033;-60
2022/09/04 07:04:27;;;;;;;8.90;6.47;;;13.60;99.90;;;;;;5062191;28;20444;-59
2022/09/04 07:07:24;;;;;;;9.10;6.60;;;13.70;99.90;;;;;;5073214;28;22441;-59
2022/09/04 07:09:58;;;;;;;6.97;6.27;;;13.80;99.90;;;;;;5066958;28;20810;-60
2022/09/04 07:12:32;;;;;;;6.80;5.80;;;13.90;99.90;;;;;;5054781;28;20482;-60
2022/09/04 07:15:17;;;;;;;6.97;6.23;;;14.00;99.90;;;;;;5052993;28;20900;-60
2022/09/04 07:18:06;;;;;;;10.10;6.23;;;14.10;99.90;;;;;;5068796;28;20597;-60
2022/09/04 07:20:40;;;;;;;6.30;5.70;;;14.10;99.90;;;;;;5057610;28;20543;-61
2022/09/04 07:23:08;;;;;;;8.00;6.23;;;14.30;99.90;;;;;;5068177;28;20483;-61
2022/09/04 07:25:59;;;;;;;7.90;6.03;;;14.30;99.90;;;;;;5070498;28;20499;-60
2022/09/04 07:28:55;;;;;;;6.30;5.53;;;14.40;99.90;;;;;;5067264;28;20437;-60
2022/09/04 07:31:29;;;;;;;5.50;5.00;;;14.50;99.90;;;;;;5063359;28;20430;-60
2022/09/04 07:34:07;;;;;;;9.50;6.20;;;14.60;99.90;;;;;;5068446;28;20420;-59
2022/09/04 07:36:56;;;;;;;5.60;5.10;;;14.70;99.90;;;;;;5063644;28;20468;-61
2022/09/04 07:39:59;;;;;;;6.00;5.40;;;14.80;99.90;;;;;;5070403;28;20927;-61
2022/09/04 07:42:42;;;;;;;6.17;5.57;;;14.90;99.90;;;;;;5058316;28;20996;-60
2022/09/04 07:45:26;;;;;;;5.90;5.30;;;15.00;99.90;;;;;;5062444;28;20519;-60
2022/09/04 07:48:13;;;;;;;5.83;5.33;;;15.20;99.90;;;;;;5069225;28;20436;-60
2022/09/04 07:51:03;;;;;;;5.20;4.57;;;15.30;99.90;;;;;;5053550;28;20413;-60
2022/09/04 07:53:56;;;;;;;5.70;5.10;;;15.40;99.90;;;;;;5068021;28;20538;-61
2022/09/04 07:56:56;;;;;;;5.83;5.13;;;15.40;99.90;;;;;;5071012;28;20910;-60
2022/09/04 07:59:39;;;;;;;6.43;5.47;;;15.50;99.90;;;;;;5068974;28;20428;-60
2022/09/04 08:02:12;;;;;;;7.23;6.40;;;15.70;99.90;;;;;;5066687;28;20471;-60
2022/09/04 08:04:44;;;;;;;6.37;5.77;;;15.80;99.90;;;;;;5058384;28;20429;-61
2022/09/04 08:07:19;;;;;;;7.97;6.27;;;15.90;99.90;;;;;;5070766;28;20452;-60
2022/09/04 08:10:03;;;;;;;7.60;6.50;;;16.00;99.90;;;;;;5068010;28;20501;-60
2022/09/04 08:12:55;;;;;;;8.00;6.00;;;16.20;99.90;;;;;;5072164;28;20537;-60
2022/09/04 08:15:41;;;;;;;7.50;6.20;;;16.40;99.90;;;;;;5061613;28;20440;-60
2022/09/04 08:18:16;;;;;;;8.33;6.20;;;16.50;99.90;;;;;;5065374;28;20420;-61
2022/09/04 08:20:50;;;;;;;9.77;5.97;;;16.70;99.90;;;;;;5070974;28;20415;-61
2022/09/04 08:23:27;;;;;;;8.13;5.63;;;16.80;99.90;;;;;;5050233;28;20457;-60
2022/09/04 08:26:13;;;;;;;7.00;5.73;;;17.00;99.90;;;;;;5068391;28;20504;-61
2022/09/04 08:29:16;;;;;;;13.40;6.77;;;17.20;99.90;;;;;;5059942;28;20484;-60
2022/09/04 08:31:52;;;;;;;6.70;5.10;;;17.40;99.90;;;;;;5056787;28;20450;-60
2022/09/04 08:34:44;;;;;;;9.23;5.07;;;17.50;99.90;;;;;;5065167;28;20471;-60
2022/09/04 08:37:10;;;;;;;8.00;4.67;;;17.60;99.90;;;;;;5067635;28;20433;-60
2022/09/04 08:39:47;;;;;;;5.50;5.00;;;17.80;99.90;;;;;;5050633;28;20510;-60
2022/09/04 08:42:13;;;;;;;5.10;4.60;;;17.90;99.90;;;;;;5066253;28;20721;-61
2022/09/04 08:45:01;;;;;;;5.90;5.23;;;18.10;99.90;;;;;;5067838;28;20427;-60
2022/09/04 08:47:26;;;;;;;5.03;4.57;;;18.30;99.90;;;;;;5068205;28;20577;-61
2022/09/04 08:50:01;;;;;;;7.40;4.37;;;18.40;99.90;;;;;;5069394;28;20450;-60
2022/09/04 08:52:44;;;;;;;16.60;5.83;;;18.60;99.90;;;;;;5063438;28;21966;-60
2022/09/04 08:55:47;;;;;;;4.40;3.87;;;18.80;99.90;;;;;;5067502;28;20432;-61
2022/09/04 08:58:46;;;;;;;5.10;3.87;;;18.90;99.90;;;;;;5060423;28;20504;-61
2022/09/04 09:01:33;;;;;;;5.30;4.33;;;19.10;99.90;;;;;;5044222;28;21035;-60
2022/09/04 09:04:08;;;;;;;4.40;4.00;;;19.20;99.90;;;;;;5044732;28;20423;-60
2022/09/04 09:06:52;;;;;;;4.80;3.70;;;19.40;99.90;;;;;;5066247;28;20821;-61
2022/09/04 09:09:55;;;;;;;4.80;3.40;;;19.50;99.90;;;;;;5056744;28;20848;-60
2022/09/04 09:13:00;;;;;;;5.30;3.43;;;19.70;99.90;;;;;;5059476;28;20484;-60
2022/09/04 09:15:46;;;;;;;5.47;3.50;;;19.90;99.90;;;;;;5063278;28;20428;-60
2022/09/04 09:18:30;;;;;;;3.90;3.27;;;20.20;99.90;;;;;;5063776;28;20429;-61
2022/09/04 09:21:15;;;;;;;3.37;2.87;;;20.40;99.90;;;;;;5062784;28;20417;-61
2022/09/04 09:24:19;;;;;;;3.70;3.30;;;20.50;99.90;;;;;;5067790;28;20417;-61
2022/09/04 09:27:10;;;;;;;4.37;2.90;;;20.60;99.90;;;;;;5034159;28;20525;-61
2022/09/04 09:30:04;;;;;;;3.53;3.13;;;20.90;99.90;;;;;;5064666;28;20429;-60
2022/09/04 09:33:07;;;;;;;4.93;3.10;;;21.10;99.90;;;;;;5055435;28;21026;-62
2022/09/04 09:36:06;;;;;;;4.43;3.17;;;21.30;99.90;;;;;;5064873;28;20427;-60
2022/09/04 09:38:33;;;;;;;2.90;2.60;;;21.40;99.90;;;;;;5075761;28;20438;-60
2022/09/04 09:41:36;;;;;;;2.60;2.40;;;21.40;99.90;;;;;;5067334;28;20427;-60
2022/09/04 09:44:20;;;;;;;3.80;2.53;;;21.30;99.30;;;;;;5054295;28;20571;-60
2022/09/04 09:46:57;;;;;;;2.97;2.40;;;21.10;98.80;;;;;;5060280;28;20557;-60
2022/09/04 09:49:52;;;;;;;3.00;2.43;;;20.90;98.80;;;;;;5061685;28;20511;-60
2022/09/04 09:52:53;;;;;;;2.33;1.80;;;20.60;99.10;;;;;;5066117;28;20448;-61
2022/09/04 09:55:24;;;;;;;3.17;2.07;;;20.40;99.30;;;;;;5038791;28;20417;-60
2022/09/04 09:58:35;;;;;;;2.70;2.50;;;20.30;99.90;;;;;;5048668;28;20420;-60
2022/09/04 10:01:27;;;;;;;5.83;2.60;;;20.10;99.90;;;;;;5055677;28;20460;-59
2022/09/04 10:04:11;;;;;;;2.83;2.10;;;20.00;99.90;;;;;;5055647;28;20453;-60
2022/09/04 10:06:59;;;;;;;2.57;2.30;;;19.90;99.10;;;;;;5062918;28;20455;-60
2022/09/04 10:09:36;;;;;;;3.77;2.20;;;19.90;98.70;;;;;;5065327;28;20842;-60
2022/09/04 10:12:20;;;;;;;2.07;1.97;;;19.80;99.10;;;;;;5049125;28;20460;-61
2022/09/04 10:14:57;;;;;;;3.97;2.47;;;19.80;99.90;;;;;;5060363;28;20413;-59
2022/09/04 10:18:05;;;;;;;5.67;2.60;;;19.80;99.90;;;;;;5043610;28;20455;-60
2022/09/04 10:21:11;;;;;;;4.93;2.97;;;19.70;99.90;;;;;;5051556;28;20452;-60
2022/09/04 10:24:04;;;;;;;5.17;2.77;;;19.70;99.90;;;;;;5047690;28;20825;-60
2022/09/04 10:27:00;;;;;;;2.80;2.60;;;19.70;99.90;;;;;;5061593;28;20989;-60
2022/09/04 10:29:49;;;;;;;2.57;2.37;;;19.60;99.90;;;;;;5066787;28;20508;-60
2022/09/04 10:32:14;;;;;;;2.70;2.30;;;19.60;99.90;;;;;;5056428;28;20536;-60
2022/09/04 10:34:55;;;;;;;3.00;2.40;;;19.50;99.90;;;;;;5066294;28;20503;-61
2022/09/04 10:37:32;;;;;;;2.83;2.53;;;19.50;99.90;;;;;;5063221;28;20659;-60
2022/09/04 10:43:15;;;;;;;4.00;2.37;;;19.50;99.90;;;;;;5052542;28;20439;-61
2022/09/04 10:46:19;;;;;;;3.20;2.70;;;19.70;99.90;;;;;;5073375;28;20531;-60
2022/09/04 10:49:06;;;;;;;2.53;2.23;;;20.20;99.90;;;;;;5060391;28;20461;-60
2022/09/04 10:51:33;;;;;;;4.80;2.40;;;20.70;99.90;;;;;;5061341;28;20848;-59
2022/09/04 10:54:16;;;;;;;6.67;2.60;;;21.20;99.90;;;;;;5070931;28;20814;-60
2022/09/04 10:56:51;;;;;;;1.80;1.60;;;21.50;93.10;;;;;;5066982;28;21008;-60
2022/09/04 10:59:35;;;;;;;2.40;2.20;;;21.70;69.40;;;;;;5062377;28;21014;-60
2022/09/04 11:02:08;;;;;;;5.87;2.17;;;22.10;72.10;;;;;;5065717;28;20482;-60
2022/09/04 11:04:44;;;;;;;2.37;2.17;;;22.50;69.40;;;;;;5070930;28;20428;-60
2022/09/04 11:07:18;;;;;;;1.93;1.80;;;22.80;71.20;;;;;;5061846;28;20459;-61
2022/09/04 11:09:53;;;;;;;2.63;2.30;;;23.00;73.30;;;;;;5060992;28;20733;-60
2022/09/04 11:12:36;;;;;;;2.57;2.37;;;23.30;72.40;;;;;;5062634;28;20494;-61
2022/09/04 11:15:27;;;;;;;3.23;2.10;;;23.30;67.20;;;;;;5042420;28;20420;-61
2022/09/04 11:18:21;;;;;;;2.33;2.13;;;23.10;68.20;;;;;;5071881;28;20777;-60
2022/09/04 11:20:58;;;;;;;3.57;2.33;;;23.20;70.20;;;;;;5070252;28;21061;-60
2022/09/04 11:23:32;;;;;;;2.40;2.20;;;23.60;73.90;;;;;;5066899;28;20444;-61
2022/09/04 11:26:04;;;;;;;3.10;2.40;;;23.80;72.90;;;;;;5047840;28;20452;-60
2022/09/04 11:29:09;;;;;;;3.60;2.10;;;23.80;70.00;;;;;;5069798;28;20940;-61
2022/09/04 11:31:41;;;;;;;3.77;2.10;;;23.50;68.00;;;;;;5060840;28;20417;-60
2022/09/04 11:34:10;;;;;;;2.80;2.17;;;23.20;67.80;;;;;;5060808;28;20456;-61
2022/09/04 11:37:07;;;;;;;2.03;1.90;;;22.90;69.50;;;;;;5056854;28;20478;-61
2022/09/04 11:39:39;;;;;;;2.47;2.27;;;22.60;73.90;;;;;;5052109;28;20435;-61
2022/09/04 11:42:19;;;;;;;3.60;2.10;;;22.40;77.20;;;;;;5066589;28;20468;-60
2022/09/04 11:44:59;;;;;;;3.80;2.57;;;22.30;80.70;;;;;;5063673;28;20429;-60
2022/09/04 11:47:59;;;;;;;3.53;2.40;;;22.20;80.10;;;;;;5070270;28;20464;-61
2022/09/04 11:50:51;;;;;;;2.60;2.40;;;22.10;80.50;;;;;;5047821;28;20425;-60
2022/09/04 11:53:38;;;;;;;4.37;3.07;;;22.10;74.80;;;;;;5068759;28;20447;-61
2022/09/04 11:56:37;;;;;;;4.20;2.60;;;22.30;75.90;;;;;;5062698;28;20781;-61
2022/09/04 11:59:11;;;;;;;2.60;2.40;;;22.70;79.70;;;;;;5057701;28;20851;-60
2022/09/04 12:02:14;;;;;;;2.40;2.20;;;23.20;68.30;;;;;;5067291;28;20435;-60
2022/09/04 12:05:10;;;;;;;3.50;2.50;;;23.60;62.00;;;;;;5059601;28;20467;-62
2022/09/04 12:07:50;;;;;;;3.80;2.43;;;24.10;64.70;;;;;;5065361;28;20521;-60
2022/09/04 12:10:31;;;;;;;4.40;2.50;;;24.50;60.30;;;;;;5078277;28;20416;-61
2022/09/04 12:13:13;;;;;;;3.83;2.33;;;24.90;58.70;;;;;;5059397;28;20516;-61
2022/09/04 12:16:06;;;;;;;3.37;2.77;;;25.30;61.70;;;;;;5067269;28;20507;-61
2022/09/04 12:18:56;;;;;;;2.40;2.20;;;25.80;63.30;;;;;;5069791;28;20767;-60
2022/09/04 12:21:33;;;;;;;2.80;2.60;;;26.10;61.70;;;;;;5062497;28;20499;-60
2022/09/04 12:24:17;;;;;;;7.20;2.47;;;26.10;60.80;;;;;;5061151;28;20420;-61
2022/09/04 12:27:03;;;;;;;4.63;1.90;;;26.30;59.10;;;;;;5059095;28;20463;-61
2022/09/04 12:30:03;;;;;;;2.63;2.40;;;26.50;57.60;;;;;;5052301;28;20443;-61
2022/09/04 12:32:58;;;;;;;7.80;2.30;;;26.50;56.00;;;;;;5067109;28;20524;-61
2022/09/04 12:35:33;;;;;;;4.73;2.13;;;26.30;56.60;;;;;;5049304;28;20447;-60
2022/09/04 12:38:22;;;;;;;4.17;2.20;;;26.30;57.60;;;;;;5061579;28;20455;-62
2022/09/04 12:41:19;;;;;;;3.37;2.40;;;26.50;56.90;;;;;;5066369;28;20427;-61
2022/09/04 12:44:02;;;;;;;2.33;2.13;;;26.80;56.80;;;;;;5075353;28;20575;-61
2022/09/04 12:46:55;;;;;;;2.20;2.00;;;27.20;55.70;;;;;;5067260;28;21102;-62
2022/09/04 12:49:33;;;;;;;2.27;1.90;;;27.20;54.10;;;;;;5064317;28;20436;-60
2022/09/04 12:52:25;;;;;;;2.20;2.00;;;27.00;54.70;;;;;;5065055;28;20527;-61
2022/09/04 12:55:47;;;;;;;3.63;2.20;;;27.00;54.90;;;;;;5060595;28;20416;-61
2022/09/04 12:58:47;;;;;;;5.27;2.43;;;27.30;55.50;;;;;;5009349;28;20433;-61
2022/09/04 13:01:35;;;;;;;3.37;2.07;;;27.70;54.30;;;;;;5027629;28;20436;-60
2022/09/04 13:04:19;;;;;;;2.97;2.30;;;28.00;53.60;;;;;;5056893;28;20205;-60
2022/09/04 13:07:03;;;;;;;4.67;2.70;;;28.20;53.40;;;;;;5050134;28;20196;-61
2022/09/04 13:09:41;;;;;;;3.30;2.20;;;28.40;54.30;;;;;;5058997;28;20166;-62
2022/09/04 13:12:15;;;;;;;3.43;2.03;;;28.60;54.50;;;;;;5064412;28;21760;-61
2022/09/04 13:14:59;;;;;;;2.50;2.20;;;28.80;53.90;;;;;;5068513;28;20165;-61
2022/09/04 13:17:24;;;;;;;2.30;2.00;;;29.00;52.90;;;;;;5068786;28;20173;-60
2022/09/04 13:20:09;;;;;;;2.20;2.00;;;29.20;52.60;;;;;;5048296;28;20158;-60
2022/09/04 13:22:53;;;;;;;2.50;1.80;;;29.40;51.50;;;;;;5067051;28;20221;-61
2022/09/04 13:25:28;;;;;;;3.43;2.67;;;29.10;51.00;;;;;;5067704;28;20189;-61
2022/09/04 13:28:03;;;;;;;3.43;2.13;;;28.70;52.20;;;;;;5064280;28;20200;-61
2022/09/04 13:30:30;;;;;;;5.40;2.67;;;28.70;52.50;;;;;;5061951;28;20172;-61
2022/09/04 13:33:14;;;;;;;3.27;2.20;;;28.90;53.00;;;;;;5068910;28;20193;-61
2022/09/04 13:35:49;;;;;;;2.83;1.97;;;29.10;51.50;;;;;;5057554;28;20174;-61
2022/09/04 13:38:42;;;;;;;4.60;1.88;;;29.10;52.30;;;;;;5066084;28;20172;-61
2022/09/04 13:41:41;;;;;;;2.23;2.00;;;29.20;51.10;;;;;;5062064;28;20158;-62
2022/09/04 13:44:42;;;;;;;1.80;1.70;;;29.30;50.80;;;;;;5062392;28;20177;-62
2022/09/04 13:47:34;;;;;;;3.40;2.08;;;29.10;51.00;;;;;;5051847;28;20213;-61
2022/09/04 13:50:07;;;;;;;3.35;2.20;;;29.30;50.90;;;;;;5062025;28;20557;-61
2022/09/04 13:52:45;;;;;;;2.88;1.80;;;29.50;50.80;;;;;;5068372;28;20190;-60
2022/09/04 13:55:33;;;;;;;3.33;2.05;;;29.70;49.90;;;;;;5060814;28;20178;-60
2022/09/04 13:58:09;;;;;;;2.05;1.95;;;29.90;49.50;;;;;;5061726;28;20174;-60
2022/09/04 14:00:44;;;;;;;2.35;2.13;;;29.90;48.70;;;;;;5065584;28;20169;-60
2022/09/04 14:03:18;;;;;;;2.85;2.00;;;30.00;47.60;;;;;;5061762;28;20300;-61
2022/09/04 14:05:44;;;;;;;2.40;2.10;;;29.90;48.30;;;;;;5049330;28;20658;-60
2022/09/04 14:08:15;;;;;;;2.00;1.80;;;29.60;47.70;;;;;;5060760;28;20174;-59
2022/09/04 14:11:05;;;;;;;3.03;2.38;;;29.10;48.20;;;;;;5063947;28;20198;-59
2022/09/04 14:13:31;;;;;;;2.50;2.30;;;28.90;50.10;;;;;;5065527;28;20200;-60